sensor_id;sensor_type;location;lat;lon;timestamp;P1;durP1;ratioP1;P2;durP2;ratioP2
46222;SDS011;31943;51.410;7.564;2024-03-08T00:00:30;20.48;;;15.95;;
46222;SDS011;31943;51.410;7.564;2024-03-08T00:02:56;20.35;;;16.90;;
46222;SDS011;31943;51.410;7.564;2024-03-08T00:05:22;23.45;;;18.20;;
46222;SDS011;31943;51.410;7.564;2024-03-08T00:07:49;20.90;;;16.77;;
46222;SDS011;31943;51.410;7.564;2024-03-08T00:10:14;20.10;;;16.38;;
46222;SDS011;31943;51.410;7.564;2024-03-08T00:12:40;20.48;;;16.80;;
46222;SDS011;31943;51.410;7.564;2024-03-08T00:15:07;21.17;;;16.35;;
46222;SDS011;31943;51.410;7.564;2024-03-08T00:17:33;20.13;;;16.15;;
46222;SDS011;31943;51.410;7.564;2024-03-08T00:19:59;20.40;;;17.80;;
46222;SDS011;31943;51.410;7.564;2024-03-08T00:22:24;21.10;;;18.02;;
46222;SDS011;31943;51.410;7.564;2024-03-08T00:24:51;21.08;;;16.90;;
46222;SDS011;31943;51.410;7.564;2024-03-08T00:27:17;20.30;;;17.05;;
46222;SDS011;31943;51.410;7.564;2024-03-08T00:29:43;21.02;;;17.20;;
46222;SDS011;31943;51.410;7.564;2024-03-08T00:32:08;20.05;;;17.17;;
46222;SDS011;31943;51.410;7.564;2024-03-08T00:34:35;22.73;;;17.75;;
46222;SDS011;31943;51.410;7.564;2024-03-08T00:37:00;19.70;;;17.15;;
46222;SDS011;31943;51.410;7.564;2024-03-08T00:39:26;19.73;;;15.88;;
46222;SDS011;31943;51.410;7.564;2024-03-08T00:41:54;20.63;;;16.98;;
46222;SDS011;31943;51.410;7.564;2024-03-08T00:44:19;19.58;;;16.55;;
46222;SDS011;31943;51.410;7.564;2024-03-08T00:46:45;21.65;;;17.35;;
46222;SDS011;31943;51.410;7.564;2024-03-08T00:49:11;23.42;;;17.63;;
46222;SDS011;31943;51.410;7.564;2024-03-08T00:51:36;21.13;;;17.15;;
46222;SDS011;31943;51.410;7.564;2024-03-08T00:54:02;21.30;;;17.23;;
46222;SDS011;31943;51.410;7.564;2024-03-08T00:56:27;21.00;;;16.50;;
46222;SDS011;31943;51.410;7.564;2024-03-08T00:58:55;21.77;;;17.25;;
46222;SDS011;31943;51.410;7.564;2024-03-08T01:01:22;22.98;;;17.40;;
46222;SDS011;31943;51.410;7.564;2024-03-08T01:03:47;23.48;;;18.00;;
46222;SDS011;31943;51.410;7.564;2024-03-08T01:06:13;23.15;;;16.95;;
46222;SDS011;31943;51.410;7.564;2024-03-08T01:08:38;20.48;;;16.65;;
46222;SDS011;31943;51.410;7.564;2024-03-08T01:11:04;21.10;;;16.88;;
46222;SDS011;31943;51.410;7.564;2024-03-08T01:13:30;24.70;;;18.48;;
46222;SDS011;31943;51.410;7.564;2024-03-08T01:15:57;21.30;;;16.80;;
46222;SDS011;31943;51.410;7.564;2024-03-08T01:18:22;20.65;;;17.25;;
46222;SDS011;31943;51.410;7.564;2024-03-08T01:20:48;22.27;;;17.90;;
46222;SDS011;31943;51.410;7.564;2024-03-08T01:23:13;24.02;;;18.83;;
46222;SDS011;31943;51.410;7.564;2024-03-08T01:25:39;25.73;;;18.83;;
46222;SDS011;31943;51.410;7.564;2024-03-08T01:28:05;23.70;;;18.05;;
46222;SDS011;31943;51.410;7.564;2024-03-08T01:30:30;23.52;;;18.95;;
46222;SDS011;31943;51.410;7.564;2024-03-08T01:32:57;23.48;;;18.40;;
46222;SDS011;31943;51.410;7.564;2024-03-08T01:35:23;26.83;;;19.63;;
46222;SDS011;31943;51.410;7.564;2024-03-08T01:37:49;24.92;;;20.15;;
46222;SDS011;31943;51.410;7.564;2024-03-08T01:40:14;22.80;;;19.10;;
46222;SDS011;31943;51.410;7.564;2024-03-08T01:42:40;24.73;;;19.60;;
46222;SDS011;31943;51.410;7.564;2024-03-08T01:45:05;25.80;;;19.45;;
46222;SDS011;31943;51.410;7.564;2024-03-08T01:47:33;24.00;;;18.98;;
46222;SDS011;31943;51.410;7.564;2024-03-08T01:50:01;25.58;;;19.38;;
46222;SDS011;31943;51.410;7.564;2024-03-08T01:52:27;24.42;;;18.13;;
46222;SDS011;31943;51.410;7.564;2024-03-08T01:54:54;24.48;;;18.25;;
46222;SDS011;31943;51.410;7.564;2024-03-08T01:57:19;24.10;;;18.17;;
46222;SDS011;31943;51.410;7.564;2024-03-08T01:59:45;19.92;;;16.77;;
46222;SDS011;31943;51.410;7.564;2024-03-08T02:02:11;22.77;;;17.70;;
46222;SDS011;31943;51.410;7.564;2024-03-08T02:04:44;21.42;;;16.65;;
46222;SDS011;31943;51.410;7.564;2024-03-08T02:07:11;25.83;;;18.20;;
46222;SDS011;31943;51.410;7.564;2024-03-08T02:09:37;24.58;;;18.05;;
46222;SDS011;31943;51.410;7.564;2024-03-08T02:12:03;21.63;;;18.13;;
46222;SDS011;31943;51.410;7.564;2024-03-08T02:14:29;22.10;;;18.10;;
46222;SDS011;31943;51.410;7.564;2024-03-08T02:16:55;21.85;;;16.80;;
46222;SDS011;31943;51.410;7.564;2024-03-08T02:19:21;21.02;;;16.65;;
46222;SDS011;31943;51.410;7.564;2024-03-08T02:21:49;20.10;;;16.13;;
46222;SDS011;31943;51.410;7.564;2024-03-08T02:24:15;19.13;;;15.55;;
46222;SDS011;31943;51.410;7.564;2024-03-08T02:26:41;22.77;;;16.88;;
46222;SDS011;31943;51.410;7.564;2024-03-08T02:29:06;20.75;;;17.00;;
46222;SDS011;31943;51.410;7.564;2024-03-08T02:31:32;20.83;;;16.80;;
46222;SDS011;31943;51.410;7.564;2024-03-08T02:33:58;21.25;;;16.85;;
46222;SDS011;31943;51.410;7.564;2024-03-08T02:36:23;20.65;;;16.73;;
46222;SDS011;31943;51.410;7.564;2024-03-08T02:38:50;22.60;;;16.85;;
46222;SDS011;31943;51.410;7.564;2024-03-08T02:41:16;20.73;;;16.35;;
46222;SDS011;31943;51.410;7.564;2024-03-08T02:43:43;21.95;;;17.20;;
46222;SDS011;31943;51.410;7.564;2024-03-08T02:46:09;21.38;;;17.17;;
46222;SDS011;31943;51.410;7.564;2024-03-08T02:48:34;19.23;;;15.80;;
46222;SDS011;31943;51.410;7.564;2024-03-08T02:51:00;21.33;;;17.73;;
46222;SDS011;31943;51.410;7.564;2024-03-08T02:53:25;22.42;;;17.23;;
46222;SDS011;31943;51.410;7.564;2024-03-08T02:55:52;24.50;;;18.25;;
46222;SDS011;31943;51.410;7.564;2024-03-08T02:58:18;22.70;;;17.17;;
46222;SDS011;31943;51.410;7.564;2024-03-08T03:00:43;22.55;;;18.02;;
46222;SDS011;31943;51.410;7.564;2024-03-08T03:03:09;22.05;;;16.92;;
46222;SDS011;31943;51.410;7.564;2024-03-08T03:05:36;21.90;;;17.67;;
46222;SDS011;31943;51.410;7.564;2024-03-08T03:08:01;20.70;;;16.08;;
46222;SDS011;31943;51.410;7.564;2024-03-08T03:10:27;21.88;;;17.08;;
46222;SDS011;31943;51.410;7.564;2024-03-08T03:12:54;21.73;;;17.38;;
46222;SDS011;31943;51.410;7.564;2024-03-08T03:15:20;21.58;;;17.75;;
46222;SDS011;31943;51.410;7.564;2024-03-08T03:17:46;22.45;;;16.63;;
46222;SDS011;31943;51.410;7.564;2024-03-08T03:20:12;22.38;;;16.75;;
46222;SDS011;31943;51.410;7.564;2024-03-08T03:22:39;21.48;;;17.35;;
46222;SDS011;31943;51.410;7.564;2024-03-08T03:25:06;25.10;;;18.20;;
46222;SDS011;31943;51.410;7.564;2024-03-08T03:27:34;21.02;;;16.80;;
46222;SDS011;31943;51.410;7.564;2024-03-08T03:30:01;26.25;;;16.95;;
46222;SDS011;31943;51.410;7.564;2024-03-08T03:32:26;23.38;;;17.45;;
46222;SDS011;31943;51.410;7.564;2024-03-08T03:34:53;21.70;;;17.05;;
46222;SDS011;31943;51.410;7.564;2024-03-08T03:37:19;23.60;;;17.35;;
46222;SDS011;31943;51.410;7.564;2024-03-08T03:39:44;22.95;;;17.42;;
46222;SDS011;31943;51.410;7.564;2024-03-08T03:42:10;21.67;;;17.70;;
46222;SDS011;31943;51.410;7.564;2024-03-08T03:44:35;21.67;;;18.00;;
46222;SDS011;31943;51.410;7.564;2024-03-08T03:47:02;23.10;;;17.35;;
46222;SDS011;31943;51.410;7.564;2024-03-08T03:49:28;23.42;;;17.83;;
46222;SDS011;31943;51.410;7.564;2024-03-08T03:51:53;24.52;;;18.08;;
46222;SDS011;31943;51.410;7.564;2024-03-08T03:54:19;27.48;;;19.15;;
46222;SDS011;31943;51.410;7.564;2024-03-08T03:56:44;22.52;;;17.85;;
46222;SDS011;31943;51.410;7.564;2024-03-08T03:59:10;25.30;;;18.95;;
46222;SDS011;31943;51.410;7.564;2024-03-08T04:01:36;23.85;;;17.20;;
46222;SDS011;31943;51.410;7.564;2024-03-08T04:04:08;24.52;;;19.02;;
46222;SDS011;31943;51.410;7.564;2024-03-08T04:06:34;23.88;;;18.50;;
46222;SDS011;31943;51.410;7.564;2024-03-08T04:09:00;23.42;;;17.85;;
46222;SDS011;31943;51.410;7.564;2024-03-08T04:11:25;25.88;;;19.02;;
46222;SDS011;31943;51.410;7.564;2024-03-08T04:13:50;25.83;;;18.65;;
46222;SDS011;31943;51.410;7.564;2024-03-08T04:16:16;23.55;;;18.33;;
46222;SDS011;31943;51.410;7.564;2024-03-08T04:18:42;24.08;;;18.50;;
46222;SDS011;31943;51.410;7.564;2024-03-08T04:21:10;22.65;;;18.30;;
46222;SDS011;31943;51.410;7.564;2024-03-08T04:23:36;25.70;;;19.80;;
46222;SDS011;31943;51.410;7.564;2024-03-08T04:26:02;26.98;;;19.45;;
46222;SDS011;31943;51.410;7.564;2024-03-08T04:28:27;28.38;;;20.42;;
46222;SDS011;31943;51.410;7.564;2024-03-08T04:30:53;24.00;;;18.92;;
46222;SDS011;31943;51.410;7.564;2024-03-08T04:33:18;25.80;;;19.27;;
46222;SDS011;31943;51.410;7.564;2024-03-08T04:35:44;27.30;;;18.42;;
46222;SDS011;31943;51.410;7.564;2024-03-08T04:38:12;25.40;;;18.75;;
46222;SDS011;31943;51.410;7.564;2024-03-08T04:40:38;23.27;;;18.45;;
46222;SDS011;31943;51.410;7.564;2024-03-08T04:43:03;23.15;;;18.13;;
46222;SDS011;31943;51.410;7.564;2024-03-08T04:45:31;24.77;;;18.13;;
46222;SDS011;31943;51.410;7.564;2024-03-08T04:47:56;22.10;;;17.40;;
46222;SDS011;31943;51.410;7.564;2024-03-08T04:50:23;24.38;;;18.00;;
46222;SDS011;31943;51.410;7.564;2024-03-08T04:52:48;24.42;;;18.30;;
46222;SDS011;31943;51.410;7.564;2024-03-08T04:55:15;24.25;;;18.02;;
46222;SDS011;31943;51.410;7.564;2024-03-08T04:57:41;23.48;;;18.40;;
46222;SDS011;31943;51.410;7.564;2024-03-08T05:00:09;23.85;;;18.20;;
46222;SDS011;31943;51.410;7.564;2024-03-08T05:02:35;23.70;;;17.45;;
46222;SDS011;31943;51.410;7.564;2024-03-08T05:05:01;26.50;;;19.17;;
46222;SDS011;31943;51.410;7.564;2024-03-08T05:07:26;24.73;;;18.13;;
46222;SDS011;31943;51.410;7.564;2024-03-08T05:09:52;23.65;;;17.83;;
46222;SDS011;31943;51.410;7.564;2024-03-08T05:12:19;25.63;;;18.83;;
46222;SDS011;31943;51.410;7.564;2024-03-08T05:14:45;23.52;;;18.30;;
46222;SDS011;31943;51.410;7.564;2024-03-08T05:17:10;26.02;;;17.67;;
46222;SDS011;31943;51.410;7.564;2024-03-08T05:19:36;25.20;;;18.70;;
46222;SDS011;31943;51.410;7.564;2024-03-08T05:22:01;26.58;;;18.60;;
46222;SDS011;31943;51.410;7.564;2024-03-08T05:24:27;27.42;;;19.00;;
46222;SDS011;31943;51.410;7.564;2024-03-08T05:26:53;24.77;;;18.77;;
46222;SDS011;31943;51.410;7.564;2024-03-08T05:29:20;24.40;;;18.48;;
46222;SDS011;31943;51.410;7.564;2024-03-08T05:31:46;24.23;;;18.65;;
46222;SDS011;31943;51.410;7.564;2024-03-08T05:34:13;26.85;;;18.73;;
46222;SDS011;31943;51.410;7.564;2024-03-08T05:36:38;24.83;;;18.58;;
46222;SDS011;31943;51.410;7.564;2024-03-08T05:39:04;24.75;;;18.80;;
46222;SDS011;31943;51.410;7.564;2024-03-08T05:41:30;24.08;;;19.10;;
46222;SDS011;31943;51.410;7.564;2024-03-08T05:43:56;25.90;;;18.58;;
46222;SDS011;31943;51.410;7.564;2024-03-08T05:46:23;25.38;;;18.25;;
46222;SDS011;31943;51.410;7.564;2024-03-08T05:48:48;26.40;;;18.45;;
46222;SDS011;31943;51.410;7.564;2024-03-08T05:51:15;26.88;;;18.80;;
46222;SDS011;31943;51.410;7.564;2024-03-08T05:53:41;23.35;;;17.73;;
46222;SDS011;31943;51.410;7.564;2024-03-08T05:56:06;25.52;;;17.83;;
46222;SDS011;31943;51.410;7.564;2024-03-08T05:58:32;25.77;;;18.92;;
46222;SDS011;31943;51.410;7.564;2024-03-08T06:00:57;24.30;;;17.70;;
46222;SDS011;31943;51.410;7.564;2024-03-08T06:03:24;27.25;;;18.48;;
46222;SDS011;31943;51.410;7.564;2024-03-08T06:05:50;26.35;;;18.65;;
46222;SDS011;31943;51.410;7.564;2024-03-08T06:08:15;25.92;;;17.92;;
46222;SDS011;31943;51.410;7.564;2024-03-08T06:10:41;24.85;;;17.33;;
46222;SDS011;31943;51.410;7.564;2024-03-08T06:13:07;26.05;;;18.65;;
46222;SDS011;31943;51.410;7.564;2024-03-08T06:15:32;23.27;;;17.33;;
46222;SDS011;31943;51.410;7.564;2024-03-08T06:17:58;22.83;;;17.15;;
46222;SDS011;31943;51.410;7.564;2024-03-08T06:20:25;23.65;;;17.70;;
46222;SDS011;31943;51.410;7.564;2024-03-08T06:22:51;25.67;;;18.50;;
46222;SDS011;31943;51.410;7.564;2024-03-08T06:25:17;24.63;;;18.85;;
46222;SDS011;31943;51.410;7.564;2024-03-08T06:27:43;25.42;;;18.08;;
46222;SDS011;31943;51.410;7.564;2024-03-08T06:30:09;25.15;;;19.20;;
46222;SDS011;31943;51.410;7.564;2024-03-08T06:32:36;26.70;;;19.35;;
46222;SDS011;31943;51.410;7.564;2024-03-08T06:35:02;23.33;;;18.02;;
46222;SDS011;31943;51.410;7.564;2024-03-08T06:37:30;24.35;;;18.27;;
46222;SDS011;31943;51.410;7.564;2024-03-08T06:39:56;28.20;;;18.58;;
46222;SDS011;31943;51.410;7.564;2024-03-08T06:42:21;26.10;;;18.77;;
46222;SDS011;31943;51.410;7.564;2024-03-08T06:44:48;25.92;;;17.02;;
46222;SDS011;31943;51.410;7.564;2024-03-08T06:47:13;25.00;;;17.88;;
46222;SDS011;31943;51.410;7.564;2024-03-08T06:49:39;24.33;;;18.33;;
46222;SDS011;31943;51.410;7.564;2024-03-08T06:52:06;27.13;;;18.73;;
46222;SDS011;31943;51.410;7.564;2024-03-08T06:54:33;26.02;;;19.05;;
46222;SDS011;31943;51.410;7.564;2024-03-08T06:56:59;29.98;;;19.60;;
46222;SDS011;31943;51.410;7.564;2024-03-08T06:59:24;30.83;;;21.13;;
46222;SDS011;31943;51.410;7.564;2024-03-08T07:01:51;26.83;;;19.77;;
46222;SDS011;31943;51.410;7.564;2024-03-08T07:04:17;27.13;;;19.92;;
46222;SDS011;31943;51.410;7.564;2024-03-08T07:06:43;27.70;;;19.65;;
46222;SDS011;31943;51.410;7.564;2024-03-08T07:09:08;27.58;;;20.42;;
46222;SDS011;31943;51.410;7.564;2024-03-08T07:11:37;28.20;;;20.45;;
46222;SDS011;31943;51.410;7.564;2024-03-08T07:14:02;29.48;;;20.15;;
46222;SDS011;31943;51.410;7.564;2024-03-08T07:16:28;25.52;;;19.27;;
46222;SDS011;31943;51.410;7.564;2024-03-08T07:18:53;28.02;;;20.25;;
46222;SDS011;31943;51.410;7.564;2024-03-08T07:21:19;29.05;;;21.45;;
46222;SDS011;31943;51.410;7.564;2024-03-08T07:23:45;34.28;;;22.08;;
46222;SDS011;31943;51.410;7.564;2024-03-08T07:26:14;29.35;;;21.92;;
46222;SDS011;31943;51.410;7.564;2024-03-08T07:28:41;28.95;;;21.92;;
46222;SDS011;31943;51.410;7.564;2024-03-08T07:31:07;31.08;;;22.33;;
46222;SDS011;31943;51.410;7.564;2024-03-08T07:33:33;29.92;;;21.88;;
46222;SDS011;31943;51.410;7.564;2024-03-08T07:35:58;27.40;;;21.00;;
46222;SDS011;31943;51.410;7.564;2024-03-08T07:38:23;26.27;;;20.55;;
46222;SDS011;31943;51.410;7.564;2024-03-08T07:40:49;31.38;;;22.63;;
46222;SDS011;31943;51.410;7.564;2024-03-08T07:43:14;29.30;;;22.33;;
46222;SDS011;31943;51.410;7.564;2024-03-08T07:45:42;33.38;;;21.77;;
46222;SDS011;31943;51.410;7.564;2024-03-08T07:48:08;32.63;;;22.55;;
46222;SDS011;31943;51.410;7.564;2024-03-08T07:50:33;32.05;;;22.88;;
46222;SDS011;31943;51.410;7.564;2024-03-08T07:52:59;30.77;;;21.77;;
46222;SDS011;31943;51.410;7.564;2024-03-08T07:55:24;30.73;;;23.05;;
46222;SDS011;31943;51.410;7.564;2024-03-08T07:57:50;32.92;;;21.63;;
46222;SDS011;31943;51.410;7.564;2024-03-08T08:00:16;35.83;;;22.42;;
46222;SDS011;31943;51.410;7.564;2024-03-08T08:02:43;29.42;;;21.60;;
46222;SDS011;31943;51.410;7.564;2024-03-08T08:05:09;33.75;;;22.85;;
46222;SDS011;31943;51.410;7.564;2024-03-08T08:07:34;31.67;;;20.58;;
46222;SDS011;31943;51.410;7.564;2024-03-08T08:10:00;31.05;;;20.95;;
46222;SDS011;31943;51.410;7.564;2024-03-08T08:12:25;30.05;;;20.92;;
46222;SDS011;31943;51.410;7.564;2024-03-08T08:14:51;30.33;;;21.77;;
46222;SDS011;31943;51.410;7.564;2024-03-08T08:17:18;30.52;;;21.92;;
46222;SDS011;31943;51.410;7.564;2024-03-08T08:19:45;31.40;;;21.98;;
46222;SDS011;31943;51.410;7.564;2024-03-08T08:22:10;27.60;;;20.98;;
46222;SDS011;31943;51.410;7.564;2024-03-08T08:24:36;30.70;;;20.77;;
46222;SDS011;31943;51.410;7.564;2024-03-08T08:27:02;29.60;;;20.77;;
46222;SDS011;31943;51.410;7.564;2024-03-08T08:29:27;29.88;;;21.55;;
46222;SDS011;31943;51.410;7.564;2024-03-08T08:31:53;29.90;;;21.50;;
46222;SDS011;31943;51.410;7.564;2024-03-08T08:34:19;35.20;;;22.48;;
46222;SDS011;31943;51.410;7.564;2024-03-08T08:36:46;32.03;;;21.52;;
46222;SDS011;31943;51.410;7.564;2024-03-08T08:39:12;30.33;;;22.00;;
46222;SDS011;31943;51.410;7.564;2024-03-08T08:41:37;29.85;;;21.50;;
46222;SDS011;31943;51.410;7.564;2024-03-08T08:44:03;31.77;;;21.70;;
46222;SDS011;31943;51.410;7.564;2024-03-08T08:46:28;28.17;;;21.45;;
46222;SDS011;31943;51.410;7.564;2024-03-08T08:48:55;29.77;;;21.80;;
46222;SDS011;31943;51.410;7.564;2024-03-08T08:51:20;29.15;;;20.98;;
46222;SDS011;31943;51.410;7.564;2024-03-08T08:53:48;29.90;;;21.27;;
46222;SDS011;31943;51.410;7.564;2024-03-08T08:56:13;28.15;;;20.15;;
46222;SDS011;31943;51.410;7.564;2024-03-08T08:58:39;29.85;;;22.75;;
46222;SDS011;31943;51.410;7.564;2024-03-08T09:01:05;31.40;;;20.20;;
46222;SDS011;31943;51.410;7.564;2024-03-08T09:03:31;28.80;;;20.30;;
46222;SDS011;31943;51.410;7.564;2024-03-08T09:05:57;32.63;;;22.23;;
46222;SDS011;31943;51.410;7.564;2024-03-08T09:08:22;29.77;;;21.27;;
46222;SDS011;31943;51.410;7.564;2024-03-08T09:10:49;28.80;;;20.83;;
46222;SDS011;31943;51.410;7.564;2024-03-08T09:13:15;28.23;;;20.90;;
46222;SDS011;31943;51.410;7.564;2024-03-08T09:15:40;30.05;;;20.58;;
46222;SDS011;31943;51.410;7.564;2024-03-08T09:18:07;28.02;;;19.65;;
46222;SDS011;31943;51.410;7.564;2024-03-08T09:20:34;28.67;;;20.85;;
46222;SDS011;31943;51.410;7.564;2024-03-08T09:23:00;25.08;;;19.77;;
46222;SDS011;31943;51.410;7.564;2024-03-08T09:25:25;27.10;;;19.65;;
46222;SDS011;31943;51.410;7.564;2024-03-08T09:27:53;28.38;;;19.80;;
46222;SDS011;31943;51.410;7.564;2024-03-08T09:30:19;26.75;;;19.20;;
46222;SDS011;31943;51.410;7.564;2024-03-08T09:32:44;26.63;;;20.20;;
46222;SDS011;31943;51.410;7.564;2024-03-08T09:35:10;26.27;;;19.40;;
46222;SDS011;31943;51.410;7.564;2024-03-08T09:37:36;28.98;;;19.73;;
46222;SDS011;31943;51.410;7.564;2024-03-08T09:40:01;28.83;;;20.08;;
46222;SDS011;31943;51.410;7.564;2024-03-08T09:42:27;26.52;;;19.80;;
46222;SDS011;31943;51.410;7.564;2024-03-08T09:44:54;30.50;;;24.60;;
46222;SDS011;31943;51.410;7.564;2024-03-08T09:47:20;24.88;;;19.85;;
46222;SDS011;31943;51.410;7.564;2024-03-08T09:49:49;26.23;;;19.48;;
46222;SDS011;31943;51.410;7.564;2024-03-08T09:52:15;23.17;;;17.35;;
46222;SDS011;31943;51.410;7.564;2024-03-08T09:54:42;26.02;;;17.45;;
46222;SDS011;31943;51.410;7.564;2024-03-08T09:57:07;24.63;;;17.10;;
46222;SDS011;31943;51.410;7.564;2024-03-08T09:59:33;21.45;;;17.08;;
46222;SDS011;31943;51.410;7.564;2024-03-08T10:02:00;23.98;;;18.80;;
46222;SDS011;31943;51.410;7.564;2024-03-08T10:04:25;24.50;;;19.27;;
46222;SDS011;31943;51.410;7.564;2024-03-08T10:06:51;28.73;;;19.65;;
46222;SDS011;31943;51.410;7.564;2024-03-08T10:09:18;24.48;;;19.77;;
46222;SDS011;31943;51.410;7.564;2024-03-08T10:11:44;24.98;;;19.83;;
46222;SDS011;31943;51.410;7.564;2024-03-08T10:14:10;24.60;;;19.85;;
46222;SDS011;31943;51.410;7.564;2024-03-08T10:16:37;24.42;;;19.67;;
46222;SDS011;31943;51.410;7.564;2024-03-08T10:19:05;27.35;;;20.17;;
46222;SDS011;31943;51.410;7.564;2024-03-08T10:21:31;26.20;;;20.95;;
46222;SDS011;31943;51.410;7.564;2024-03-08T10:23:57;29.42;;;20.88;;
46222;SDS011;31943;51.410;7.564;2024-03-08T10:26:23;28.23;;;20.60;;
46222;SDS011;31943;51.410;7.564;2024-03-08T10:28:49;26.55;;;21.27;;
46222;SDS011;31943;51.410;7.564;2024-03-08T10:31:16;27.20;;;21.23;;
46222;SDS011;31943;51.410;7.564;2024-03-08T10:33:42;29.27;;;21.27;;
46222;SDS011;31943;51.410;7.564;2024-03-08T10:36:10;25.92;;;21.02;;
46222;SDS011;31943;51.410;7.564;2024-03-08T10:38:36;28.73;;;21.95;;
46222;SDS011;31943;51.410;7.564;2024-03-08T10:41:03;30.15;;;20.40;;
46222;SDS011;31943;51.410;7.564;2024-03-08T10:43:31;29.02;;;21.33;;
46222;SDS011;31943;51.410;7.564;2024-03-08T10:46:06;28.48;;;21.00;;
46222;SDS011;31943;51.410;7.564;2024-03-08T10:48:43;28.50;;;21.27;;
46222;SDS011;31943;51.410;7.564;2024-03-08T10:51:11;26.27;;;20.55;;
46222;SDS011;31943;51.410;7.564;2024-03-08T10:53:37;25.63;;;21.77;;
46222;SDS011;31943;51.410;7.564;2024-03-08T10:56:05;28.80;;;22.20;;
46222;SDS011;31943;51.410;7.564;2024-03-08T10:58:31;28.58;;;22.73;;
46222;SDS011;31943;51.410;7.564;2024-03-08T11:00:57;27.45;;;22.10;;
46222;SDS011;31943;51.410;7.564;2024-03-08T11:06:15;26.45;;;22.08;;
46222;SDS011;31943;51.410;7.564;2024-03-08T11:08:41;23.10;;;18.63;;
46222;SDS011;31943;51.410;7.564;2024-03-08T11:11:11;17.52;;;14.95;;
46222;SDS011;31943;51.410;7.564;2024-03-08T11:13:49;13.65;;;9.65;;
46222;SDS011;31943;51.410;7.564;2024-03-08T11:16:36;12.25;;;9.98;;
46222;SDS011;31943;51.410;7.564;2024-03-08T11:19:05;13.98;;;10.43;;
46222;SDS011;31943;51.410;7.564;2024-03-08T11:21:53;12.57;;;10.15;;
46222;SDS011;31943;51.410;7.564;2024-03-08T11:24:22;12.40;;;10.25;;
46222;SDS011;31943;51.410;7.564;2024-03-08T11:26:48;12.18;;;9.93;;
46222;SDS011;31943;51.410;7.564;2024-03-08T11:29:32;12.75;;;10.52;;
46222;SDS011;31943;51.410;7.564;2024-03-08T11:32:03;13.30;;;9.55;;
46222;SDS011;31943;51.410;7.564;2024-03-08T11:34:29;11.95;;;10.05;;
46222;SDS011;31943;51.410;7.564;2024-03-08T11:36:56;11.95;;;9.73;;
46222;SDS011;31943;51.410;7.564;2024-03-08T11:39:22;13.02;;;9.98;;
46222;SDS011;31943;51.410;7.564;2024-03-08T11:41:48;12.88;;;9.65;;
46222;SDS011;31943;51.410;7.564;2024-03-08T11:44:13;11.93;;;9.30;;
46222;SDS011;31943;51.410;7.564;2024-03-08T11:46:39;12.13;;;9.20;;
46222;SDS011;31943;51.410;7.564;2024-03-08T11:49:04;12.85;;;9.45;;
46222;SDS011;31943;51.410;7.564;2024-03-08T11:51:30;13.15;;;9.40;;
46222;SDS011;31943;51.410;7.564;2024-03-08T11:53:58;10.65;;;9.07;;
46222;SDS011;31943;51.410;7.564;2024-03-08T11:56:24;12.85;;;9.40;;
46222;SDS011;31943;51.410;7.564;2024-03-08T11:58:52;12.30;;;9.30;;
46222;SDS011;31943;51.410;7.564;2024-03-08T12:01:19;12.70;;;9.88;;
46222;SDS011;31943;51.410;7.564;2024-03-08T12:03:44;11.05;;;9.00;;
46222;SDS011;31943;51.410;7.564;2024-03-08T12:06:19;11.93;;;10.23;;
46222;SDS011;31943;51.410;7.564;2024-03-08T12:08:45;10.85;;;8.95;;
46222;SDS011;31943;51.410;7.564;2024-03-08T12:11:12;11.43;;;9.27;;
46222;SDS011;31943;51.410;7.564;2024-03-08T12:13:38;9.95;;;7.80;;
46222;SDS011;31943;51.410;7.564;2024-03-08T12:16:04;9.15;;;7.85;;
46222;SDS011;31943;51.410;7.564;2024-03-08T12:18:32;10.60;;;7.75;;
46222;SDS011;31943;51.410;7.564;2024-03-08T12:21:06;10.60;;;8.63;;
46222;SDS011;31943;51.410;7.564;2024-03-08T12:23:32;11.73;;;8.55;;
46222;SDS011;31943;51.410;7.564;2024-03-08T12:25:58;11.23;;;8.82;;
46222;SDS011;31943;51.410;7.564;2024-03-08T12:28:35;10.50;;;8.38;;
46222;SDS011;31943;51.410;7.564;2024-03-08T12:31:00;12.48;;;9.02;;
46222;SDS011;31943;51.410;7.564;2024-03-08T12:33:26;10.63;;;8.23;;
46222;SDS011;31943;51.410;7.564;2024-03-08T12:35:52;10.38;;;9.13;;
46222;SDS011;31943;51.410;7.564;2024-03-08T12:38:18;13.57;;;9.82;;
46222;SDS011;31943;51.410;7.564;2024-03-08T12:40:43;9.90;;;8.80;;
46222;SDS011;31943;51.410;7.564;2024-03-08T12:43:09;9.68;;;7.93;;
46222;SDS011;31943;51.410;7.564;2024-03-08T12:45:36;9.80;;;8.38;;
46222;SDS011;31943;51.410;7.564;2024-03-08T12:48:02;9.98;;;8.07;;
46222;SDS011;31943;51.410;7.564;2024-03-08T12:50:28;9.48;;;8.13;;
46222;SDS011;31943;51.410;7.564;2024-03-08T12:52:53;8.90;;;7.53;;
46222;SDS011;31943;51.410;7.564;2024-03-08T12:55:19;9.65;;;8.60;;
46222;SDS011;31943;51.410;7.564;2024-03-08T12:57:45;8.77;;;7.20;;
46222;SDS011;31943;51.410;7.564;2024-03-08T13:00:11;10.00;;;7.45;;
46222;SDS011;31943;51.410;7.564;2024-03-08T13:02:39;9.20;;;8.02;;
46222;SDS011;31943;51.410;7.564;2024-03-08T13:05:06;9.85;;;8.45;;
46222;SDS011;31943;51.410;7.564;2024-03-08T13:07:32;10.02;;;7.78;;
46222;SDS011;31943;51.410;7.564;2024-03-08T13:09:58;10.82;;;8.18;;
46222;SDS011;31943;51.410;7.564;2024-03-08T13:12:23;9.02;;;8.05;;
46222;SDS011;31943;51.410;7.564;2024-03-08T13:14:49;10.88;;;7.78;;
46222;SDS011;31943;51.410;7.564;2024-03-08T13:17:15;10.00;;;7.80;;
46222;SDS011;31943;51.410;7.564;2024-03-08T13:19:42;10.82;;;8.60;;
46222;SDS011;31943;51.410;7.564;2024-03-08T13:22:07;11.05;;;8.95;;
46222;SDS011;31943;51.410;7.564;2024-03-08T13:24:33;9.80;;;8.27;;
46222;SDS011;31943;51.410;7.564;2024-03-08T13:26:59;11.38;;;9.07;;
46222;SDS011;31943;51.410;7.564;2024-03-08T13:29:24;8.65;;;7.85;;
46222;SDS011;31943;51.410;7.564;2024-03-08T13:31:50;9.73;;;8.40;;
46222;SDS011;31943;51.410;7.564;2024-03-08T13:34:16;10.40;;;8.63;;
46222;SDS011;31943;51.410;7.564;2024-03-08T13:36:43;10.85;;;8.73;;
46222;SDS011;31943;51.410;7.564;2024-03-08T13:39:09;11.48;;;9.10;;
46222;SDS011;31943;51.410;7.564;2024-03-08T13:41:34;10.20;;;9.10;;
46222;SDS011;31943;51.410;7.564;2024-03-08T13:44:00;10.43;;;9.35;;
46222;SDS011;31943;51.410;7.564;2024-03-08T13:46:25;10.93;;;9.30;;
46222;SDS011;31943;51.410;7.564;2024-03-08T13:48:51;10.73;;;9.10;;
46222;SDS011;31943;51.410;7.564;2024-03-08T13:51:17;10.15;;;9.07;;
46222;SDS011;31943;51.410;7.564;2024-03-08T13:53:44;14.00;;;10.48;;
46222;SDS011;31943;51.410;7.564;2024-03-08T13:56:10;11.40;;;9.65;;
46222;SDS011;31943;51.410;7.564;2024-03-08T13:58:35;11.00;;;9.90;;
46222;SDS011;31943;51.410;7.564;2024-03-08T14:01:01;10.90;;;9.80;;
46222;SDS011;31943;51.410;7.564;2024-03-08T14:03:27;13.02;;;9.75;;
46222;SDS011;31943;51.410;7.564;2024-03-08T14:05:52;13.27;;;10.38;;
46222;SDS011;31943;51.410;7.564;2024-03-08T14:08:18;14.23;;;10.45;;
46222;SDS011;31943;51.410;7.564;2024-03-08T14:10:46;11.43;;;10.20;;
46222;SDS011;31943;51.410;7.564;2024-03-08T14:13:11;14.35;;;9.73;;
46222;SDS011;31943;51.410;7.564;2024-03-08T14:15:37;11.27;;;9.57;;
46222;SDS011;31943;51.410;7.564;2024-03-08T14:18:02;11.15;;;9.70;;
46222;SDS011;31943;51.410;7.564;2024-03-08T14:20:28;12.05;;;10.00;;